Time;durP1;ratioP1;P1;durP2;ratioP2;P2;SDS_P1;SDS_P2;PMS_P1;PMS_P2;Temp;Humidity;BMP_temperature;BMP_pressure;BME280_temperature;BME280_humidity;BME280_pressure;Samples;Min_cycle;Max_cycle;Signal;HPM_P1;HPM_P2
2022/01/20 06:39:13;;;;;;;;;6.00;3.00;;;;;;;;6381472;22;29741;-83
2022/01/20 06:41:41;;;;;;;;;6.75;4.00;;;;;;;;6324534;22;28816;-88
2022/01/20 06:54:16;;;;;;;;;;;;;;;;;;;;;
2022/01/20 07:12:46;;;;;;;;;5.25;3.50;;;;;;;;6109799;23;28847;-85
2022/01/20 07:21:46;;;;;;;;;;;;;;;;;;;;;
2022/01/20 07:24:01;;;;;;;;;3.50;3.00;;;;;;;;6377694;22;28591;-83
2022/01/20 07:26:28;;;;;;;;;7.00;3.00;;;;;;;;6393637;22;28575;-83
2022/01/20 07:28:54;;;;;;;;;11.00;5.50;;;;;;;;6369668;22;28553;-83
2022/01/20 07:31:29;;;;;;;;;11.00;5.75;;;;;;;;6362269;22;28636;-84
2022/01/20 07:33:57;;;;;;;;;10.25;5.25;;;;;;;;6360078;22;28609;-84
2022/01/20 07:36:50;;;;;;;;;7.75;6.00;;;;;;;;6361377;22;28027;-83
2022/01/20 07:39:44;;;;;;;;;9.00;6.25;;;;;;;;6361449;22;28436;-84
2022/01/20 07:42:40;;;;;;;;;10.75;5.75;;;;;;;;6361542;22;28611;-82
2022/01/20 07:45:30;;;;;;;;;5.00;5.00;;;;;;;;6358654;22;28466;-83
2022/01/20 07:48:01;;;;;;;;;12.75;6.00;;;;;;;;6361012;22;28421;-82
2022/01/20 11:07:06;;;;;;;;;;;;;;;;;;;;;
2022/01/20 11:09:39;;;;;;;;;19.00;14.00;;;;;;;;6386078;22;56043;-83
2022/01/20 11:12:05;;;;;;;;;12.25;10.00;;;;;;;;6360112;22;28655;-83
2022/01/20 11:14:31;;;;;;;;;15.00;13.75;;;;;;;;6362343;22;28466;-83
2022/01/20 11:16:58;;;;;;;;;13.00;11.25;;;;;;;;6361241;22;28567;-83
2022/01/20 11:19:23;;;;;;;;;22.00;14.75;;;;;;;;6362089;22;29003;-83
2022/01/20 11:21:49;;;;;;;;;17.75;12.25;;;;;;;;6390466;22;28588;-84
2022/01/20 11:24:22;;;;;;;;;19.00;14.50;;;;;;;;6391243;22;28806;-83
2022/01/20 11:26:50;;;;;;;;;17.75;10.50;;;;;;;;6389854;22;29652;-84
2022/01/20 11:29:16;;;;;;;;;14.75;10.00;;;;;;;;6363063;22;28711;-83
2022/01/20 11:31:41;;;;;;;;;8.00;7.00;;;;;;;;6392179;22;28672;-84
2022/01/20 11:34:14;;;;;;;;;12.25;7.50;;;;;;;;6392561;22;28672;-83
2022/01/20 11:36:39;;;;;;;;;12.25;8.25;;;;;;;;6392880;22;28738;-83
2022/01/20 11:39:05;;;;;;;;;9.75;6.75;;;;;;;;6392405;22;28644;-83
2022/01/20 11:41:35;;;;;;;;;13.25;8.25;;;;;;;;6392611;22;28600;-83
2022/01/20 11:44:07;;;;;;;;;9.75;7.75;;;;;;;;6392170;22;28527;-83
2022/01/20 11:46:36;;;;;;;;;8.00;7.00;;;;;;;;6391741;22;28817;-84
2022/01/20 11:49:06;;;;;;;;;12.75;7.75;;;;;;;;6392338;22;28536;-84
2022/01/20 11:51:50;;;;;;;;;10.50;6.00;;;;;;;;6392160;22;28695;-83
2022/01/20 11:54:17;;;;;;;;;10.50;6.75;;;;;;;;6392512;22;28663;-83
2022/01/20 11:56:43;;;;;;;;;8.25;5.00;;;;;;;;6392557;22;28709;-84
2022/01/20 11:59:13;;;;;;;;;8.00;6.00;;;;;;;;6391475;22;28752;-83
2022/01/20 12:01:52;;;;;;;;;7.00;5.75;;;;;;;;6363482;22;28789;-83
2022/01/20 12:04:18;;;;;;;;;8.25;5.00;;;;;;;;6392228;22;28927;-84
2022/01/20 12:06:46;;;;;;;;;4.00;1.50;;;;;;;;6393609;22;29614;-83
2022/01/20 12:09:16;;;;;;;;;11.00;7.75;;;;;;;;6392959;22;28544;-84
2022/01/20 12:11:45;;;;;;;;;10.50;8.75;;;;;;;;6393288;22;28572;-83
2022/01/20 17:03:23;;;;;;;;;;;;;;;;;;;;;
2022/01/20 17:12:16;;;;;;;;;;;;;;;;;;;;;
2022/01/20 17:14:46;;;;;;;;;3.00;3.00;;;;;;;;6395551;22;57291;-91
2022/01/20 17:17:13;;;;;;;;;4.50;4.00;;;;;;;;6365482;22;28680;-89
2022/01/20 17:19:39;;;;;;;;;4.50;3.75;;;;;;;;6393706;22;28764;-90
2022/01/20 17:22:10;;;;;;;;;15.75;8.75;;;;;;;;6394068;22;29915;-87
2022/01/20 17:24:35;;;;;;;;;10.75;4.00;;;;;;;;6364649;22;29830;-89
2022/01/20 17:27:06;;;;;;;;;11.25;7.25;;;;;;;;6393699;22;28794;-88
2022/01/20 17:29:51;;;;;;;;;;;;;;;;;;;;;
2022/01/20 17:32:45;;;;;;;;;;;;;;;;;;;;;
2022/01/20 17:35:29;;;;;;;;;7.00;6.00;;;;;;;;6389432;22;57168;-88
2022/01/20 17:37:58;;;;;;;;;6.25;5.00;;;;;;;;6362718;22;28687;-87
2022/01/20 17:40:41;;;;;;;;;8.00;7.50;;;;;;;;6362261;22;28751;-88
2022/01/20 17:43:06;;;;;;;;;7.25;4.50;;;;;;;;6362248;22;30072;-87
2022/01/20 17:45:32;;;;;;;;;13.25;3.75;;;;;;;;6362331;22;28851;-88
2022/01/20 17:47:59;;;;;;;;;6.00;3.75;;;;;;;;6360798;22;28817;-87
2022/01/20 17:50:35;;;;;;;;;3.75;3.00;;;;;;;;6360846;22;29079;-88
2022/01/20 17:53:05;;;;;;;;;10.50;4.00;;;;;;;;6391147;22;29086;-88
2022/01/20 17:55:33;;;;;;;;;7.00;4.50;;;;;;;;6362512;22;29311;-88
2022/01/20 17:58:31;;;;;;;;;;;;;;;;;;;;;
2022/01/20 18:01:22;;;;;;;;;8.25;4.00;;;;;;;;6389752;22;57497;-86
2022/01/20 18:06:53;;;;;;;;;6.50;3.50;;;;;;;;6373915;22;29157;-88
2022/01/20 18:09:46;;;;;;;;;8.00;6.00;;;;;;;;6390384;22;29490;-87
2022/01/20 18:12:55;;;;;;;;;6.75;6.00;;;;;;;;6344805;22;30588;-85
2022/01/20 18:18:23;;;;;;;;;7.75;6.00;;;;;;;;6365801;22;30930;-87
2022/01/20 18:20:50;;;;;;;;;6.25;3.00;;;;;;;;6388978;22;31442;-87
2022/01/20 18:23:15;;;;;;;;;7.50;5.00;;;;;;;;6362962;22;30485;-87
2022/01/20 18:25:41;;;;;;;;;7.50;6.00;;;;;;;;6362682;22;32809;-88
2022/01/20 18:28:09;;;;;;;;;3.00;3.00;;;;;;;;6391164;22;30759;-89
2022/01/20 18:30:35;;;;;;;;;10.75;6.00;;;;;;;;6364293;22;29936;-86
2022/01/20 18:51:45;;;;;;;;;4.00;4.00;;;;;;;;6328165;22;37508;-89
